Terminal Aerodrome Forecast
Issued by NWS

Home | Current Version | Previous Version | Text Only | Print | Product List | Glossary On
Versions: 1 2 3 4 5 6 7 8 9 10 11 12 13 14 15 16 17 18 19 20
000
FTUS43 KDLH 311720
TAFHYR
TAF
KHYR 311720Z 3118/0118 19012KT P6SM BKN015
     FM311900 20013G19KT P6SM SCT250
     FM010200 19007KT P6SM SCT040 SCT250
     FM010600 19003KT 4SM BR VCSH SCT004 BKN030
      TEMPO 0109/0113 1 1/2SM BR BKN005
     FM011500 22009KT P6SM SCT020 SCT120=

USA.gov is the U.S. government's official web portal to all federal, state and local government web resources and services.